createdAt,value
2019-06-01T00:01:31.155Z,3.25
2019-06-01T00:04:01.615Z,4.83
2019-06-01T00:06:31.850Z,5.05
2019-06-01T00:09:03.490Z,3.37
2019-06-01T00:11:35.020Z,3.90
2019-06-01T00:14:07.102Z,3.52
2019-06-01T00:16:37.817Z,3.95
2019-06-01T00:19:08.067Z,5.28
2019-06-01T00:21:38.402Z,3.42
2019-06-01T00:24:08.590Z,5.40
2019-06-01T00:26:39.094Z,4.17
2019-06-01T00:29:09.296Z,3.77
2019-06-01T00:31:41.221Z,6.97
2019-06-01T00:34:12.584Z,4.60
2019-06-01T00:36:43.516Z,3.30
2019-06-01T00:39:13.742Z,4.87
2019-06-01T00:41:44.016Z,3.62
2019-06-01T00:44:15.271Z,3.50
2019-06-01T00:46:46.606Z,4.90
2019-06-01T00:49:17.133Z,3.60
2019-06-01T00:51:49.006Z,4.05
2019-06-01T00:54:19.339Z,3.52
2019-06-01T00:56:50.047Z,3.77
2019-06-01T00:59:20.223Z,3.55
2019-06-01T01:01:55.816Z,3.47
2019-06-01T01:04:30.445Z,2.95
2019-06-01T01:07:05.892Z,5.12
2019-06-01T01:09:36.497Z,3.20
2019-06-01T01:12:07.054Z,5.03
2019-06-01T01:14:37.327Z,3.45
2019-06-01T01:17:07.934Z,3.72
2019-06-01T01:19:38.643Z,5.17
2019-06-01T01:22:09.314Z,4.22
2019-06-01T01:24:39.702Z,5.58
2019-06-01T01:27:10.062Z,4.67
2019-06-01T01:29:43.729Z,3.85
2019-06-01T01:32:14.220Z,3.30
2019-06-01T01:34:44.509Z,5.15
2019-06-01T01:37:15.004Z,3.62
2019-06-01T01:39:45.519Z,3.85
2019-06-01T01:42:16.043Z,3.37
2019-06-01T01:44:46.922Z,4.42
2019-06-01T01:47:17.217Z,3.62
2019-06-01T01:49:49.997Z,4.10
2019-06-01T01:52:20.191Z,5.47
2019-06-01T01:54:50.843Z,3.62
2019-06-01T01:57:21.383Z,4.20
2019-06-01T01:59:53.334Z,4.20
2019-06-01T02:02:23.786Z,3.52
2019-06-01T02:04:54.287Z,4.28
2019-06-01T02:07:25.125Z,5.08
2019-06-01T02:09:55.305Z,5.00
2019-06-01T02:12:25.962Z,4.00
2019-06-01T02:14:57.718Z,5.05
2019-06-01T02:17:28.457Z,4.15
2019-06-01T02:19:58.908Z,3.77
2019-06-01T02:22:29.556Z,4.60
2019-06-01T02:25:00.005Z,3.27
2019-06-01T02:27:30.894Z,3.40
2019-06-01T02:30:04.776Z,4.62
2019-06-01T02:32:33.337Z,3.60
2019-06-01T02:35:05.001Z,4.33
2019-06-01T02:37:36.534Z,3.75
2019-06-01T02:40:08.307Z,3.55
2019-06-01T02:42:38.915Z,3.37
2019-06-01T02:45:12.857Z,5.30
2019-06-01T02:47:43.643Z,5.65
2019-06-01T02:50:14.116Z,4.37
2019-06-01T02:52:46.960Z,5.60
2019-06-01T02:55:18.507Z,4.58
2019-06-01T02:57:51.156Z,5.17
2019-06-01T03:00:45.168Z,4.53
2019-06-01T03:03:16.848Z,3.72
2019-06-01T03:05:48.785Z,3.80
2019-06-01T03:08:21.045Z,3.85
2019-06-01T03:10:53.065Z,4.62
2019-06-01T03:13:25.216Z,4.85
2019-06-01T03:15:58.162Z,5.00
2019-06-01T03:18:31.539Z,4.12
2019-06-01T03:21:06.073Z,3.50
2019-06-01T03:23:38.206Z,4.22
2019-06-01T03:26:10.679Z,3.75
2019-06-01T03:28:44.140Z,3.95
2019-06-01T03:31:14.303Z,3.87
2019-06-01T03:33:44.855Z,4.50
2019-06-01T03:36:15.615Z,3.60
2019-06-01T03:38:46.075Z,4.80
2019-06-01T03:41:16.304Z,6.85
2019-06-01T03:43:47.426Z,3.83
2019-06-01T03:46:19.068Z,3.55
2019-06-01T03:48:49.768Z,3.80
2019-06-01T03:51:20.383Z,2.87
2019-06-01T03:53:51.018Z,3.45
2019-06-01T03:56:22.284Z,2.98
2019-06-01T03:58:52.522Z,4.95
2019-06-01T04:01:23.097Z,3.35
2019-06-01T04:03:53.705Z,5.03
2019-06-01T04:06:24.358Z,4.95
2019-06-01T04:08:54.804Z,4.67
2019-06-01T04:11:25.564Z,2.55
2019-06-01T04:13:56.208Z,2.75
2019-06-01T04:16:27.675Z,2.95
2019-06-01T04:18:57.958Z,3.15
2019-06-01T04:21:28.743Z,3.25
2019-06-01T04:23:59.674Z,2.92
2019-06-01T04:26:30.880Z,2.52
2019-06-01T04:29:06.375Z,2.52
2019-06-01T04:31:37.196Z,2.40
2019-06-01T04:34:08.768Z,2.25
2019-06-01T04:36:39.598Z,2.60
2019-06-01T04:39:13.837Z,2.58
2019-06-01T04:41:45.468Z,2.77
2019-06-01T04:44:19.339Z,3.92
2019-06-01T04:46:49.998Z,2.72
2019-06-01T04:49:20.671Z,3.75
2019-06-01T04:51:51.184Z,3.00
2019-06-01T04:54:21.972Z,2.72
2019-06-01T04:56:52.697Z,2.52
2019-06-01T04:59:23.057Z,2.72
2019-06-01T05:01:54.138Z,2.67
2019-06-01T05:04:24.838Z,2.52
2019-06-01T05:06:55.742Z,3.00
2019-06-01T05:09:26.335Z,2.80
2019-06-01T05:11:57.036Z,2.92
2019-06-01T05:14:27.647Z,2.80
2019-06-01T05:16:59.282Z,2.60
2019-06-01T05:19:38.765Z,2.75
2019-06-01T05:22:10.427Z,5.67
2019-06-01T05:24:44.917Z,5.00
2019-06-01T05:27:15.278Z,3.27
2019-06-01T05:29:45.648Z,3.40
2019-06-01T05:32:16.732Z,4.75
2019-06-01T05:34:48.764Z,3.67
2019-06-01T05:37:19.183Z,4.35
2019-06-01T05:39:49.504Z,3.30
2019-06-01T05:42:20.242Z,3.02
2019-06-01T05:44:50.637Z,3.77
2019-06-01T05:47:20.980Z,4.05
2019-06-01T05:49:51.411Z,3.22
2019-06-01T05:52:23.036Z,3.72
2019-06-01T05:54:53.926Z,4.28
2019-06-01T05:57:24.255Z,3.98
2019-06-01T05:59:54.518Z,3.22
2019-06-01T06:02:25.953Z,3.60
2019-06-01T06:04:56.623Z,3.85
2019-06-01T06:07:28.167Z,7.12
2019-06-01T06:09:58.417Z,3.58
2019-06-01T06:12:29.759Z,3.17
2019-06-01T06:14:59.945Z,4.65
2019-06-01T06:17:30.685Z,3.52
2019-06-01T06:20:01.453Z,3.33
2019-06-01T06:22:31.821Z,3.85
2019-06-01T06:25:02.132Z,4.12
2019-06-01T06:27:32.809Z,3.95
2019-06-01T06:30:11.287Z,4.80
2019-06-01T06:32:41.787Z,3.70
2019-06-01T06:35:13.265Z,4.78
2019-06-01T06:37:43.502Z,3.70
2019-06-01T06:40:18.005Z,3.27
2019-06-01T06:42:48.752Z,5.25
2019-06-01T06:45:20.806Z,4.08
2019-06-01T06:47:51.898Z,5.60
2019-06-01T06:50:23.449Z,5.00
2019-06-01T06:52:53.951Z,4.87
2019-06-01T06:55:24.232Z,6.35
2019-06-01T06:57:55.073Z,3.27
2019-06-01T07:00:25.340Z,4.28
2019-06-01T07:02:55.583Z,4.20
2019-06-01T07:05:27.758Z,2.80
2019-06-01T07:07:58.540Z,4.08
2019-06-01T07:10:29.152Z,4.55
2019-06-01T07:13:00.174Z,3.95
2019-06-01T07:15:31.705Z,4.37
2019-06-01T07:18:02.079Z,3.25
2019-06-01T07:20:32.418Z,5.10
2019-06-01T07:23:02.980Z,3.47
2019-06-01T07:25:33.528Z,4.95
2019-06-01T07:28:05.174Z,3.00
2019-06-01T07:30:49.718Z,4.17
2019-06-01T07:33:08.227Z,3.37
2019-06-01T07:35:40.205Z,4.10
2019-06-01T07:38:10.969Z,4.00
2019-06-01T07:40:41.587Z,3.27
2019-06-01T07:43:12.326Z,3.52
2019-06-01T07:45:42.978Z,3.65
2019-06-01T07:48:13.532Z,2.98
2019-06-01T07:50:44.285Z,3.20
2019-06-01T07:53:14.914Z,2.87
2019-06-01T07:55:45.481Z,3.00
2019-06-01T07:58:16.231Z,5.47
2019-06-01T08:00:46.748Z,2.42
2019-06-01T08:03:17.456Z,3.20
2019-06-01T08:05:48.103Z,2.58
2019-06-01T08:08:18.761Z,4.08
2019-06-01T08:10:49.364Z,3.33
2019-06-01T08:13:19.755Z,2.37
2019-06-01T08:15:50.058Z,2.20
2019-06-01T08:18:21.914Z,2.12
2019-06-01T08:20:52.615Z,2.35
2019-06-01T08:23:24.114Z,1.60
2019-06-01T08:25:56.352Z,2.02
2019-06-01T08:28:26.613Z,1.50
2019-06-01T08:30:57.911Z,4.22
2019-06-01T08:33:31.543Z,2.40
2019-06-01T08:36:00.456Z,1.70
2019-06-01T08:38:31.655Z,2.30
2019-06-01T08:41:02.686Z,3.30
2019-06-01T08:43:33.915Z,2.12
2019-06-01T08:46:04.852Z,1.82
2019-06-01T08:48:35.554Z,0.62
2019-06-01T08:51:06.905Z,1.67
2019-06-01T08:53:37.604Z,1.15
2019-06-01T08:56:08.479Z,1.27
2019-06-01T08:58:39.509Z,1.72
2019-06-01T09:01:09.742Z,1.85
2019-06-01T09:03:46.306Z,4.87
2019-06-01T09:06:12.883Z,1.57
2019-06-01T09:08:44.087Z,1.30
2019-06-01T09:11:14.284Z,1.60
2019-06-01T09:13:44.546Z,1.82
2019-06-01T09:16:14.747Z,1.25
2019-06-01T09:18:45.492Z,2.42
2019-06-01T09:21:15.577Z,1.80
2019-06-01T09:23:45.698Z,1.45
2019-06-01T09:26:15.932Z,1.70
2019-06-01T09:28:46.793Z,2.47
2019-06-01T09:31:17.914Z,2.75
2019-06-01T09:33:48.156Z,1.62
2019-06-01T09:36:18.966Z,1.15
2019-06-01T09:38:49.419Z,2.58
2019-06-01T09:41:26.415Z,1.67
2019-06-01T09:43:56.588Z,5.00
2019-06-01T09:46:28.811Z,1.15
2019-06-01T09:48:59.225Z,0.80
2019-06-01T09:51:31.283Z,1.17
2019-06-01T09:54:01.894Z,1.15
2019-06-01T09:56:34.005Z,0.98
2019-06-01T09:59:04.482Z,1.07
2019-06-01T10:01:34.725Z,1.62
2019-06-01T10:04:04.983Z,2.98
2019-06-01T10:06:35.281Z,1.57
2019-06-01T10:09:08.422Z,1.30
2019-06-01T10:11:38.689Z,2.10
2019-06-01T10:14:09.314Z,2.22
2019-06-01T10:16:39.622Z,1.65
2019-06-01T10:19:09.831Z,1.42
2019-06-01T10:21:42.244Z,1.27
2019-06-01T10:24:14.729Z,0.80
2019-06-01T10:26:45.086Z,2.27
2019-06-01T10:29:15.591Z,2.33
2019-06-01T10:31:45.781Z,1.12
2019-06-01T10:34:16.419Z,1.55
2019-06-01T10:36:46.515Z,1.55
2019-06-01T10:39:19.609Z,1.82
2019-06-01T10:41:50.211Z,1.75
2019-06-01T10:44:20.583Z,1.82
2019-06-01T10:46:51.625Z,1.27
2019-06-01T10:49:21.847Z,1.25
2019-06-01T10:51:52.577Z,1.52
2019-06-01T10:54:23.279Z,1.22
2019-06-01T10:56:53.492Z,2.27
2019-06-01T10:59:23.865Z,1.55
2019-06-01T11:01:54.695Z,0.98
2019-06-01T11:04:25.817Z,1.40
2019-06-01T11:06:56.055Z,2.27
2019-06-01T11:09:26.578Z,2.33
2019-06-01T11:11:56.860Z,1.72
2019-06-01T11:14:28.095Z,1.30
2019-06-01T11:17:02.629Z,1.32
2019-06-01T11:19:33.216Z,1.95
2019-06-01T11:22:03.577Z,2.33
2019-06-01T11:24:33.641Z,1.47
2019-06-01T11:27:03.964Z,1.20
2019-06-01T11:29:40.000Z,2.40
2019-06-01T11:32:06.133Z,1.75
2019-06-01T11:34:36.560Z,1.75
2019-06-01T11:37:07.230Z,1.45
2019-06-01T11:39:38.473Z,1.70
2019-06-01T11:42:09.135Z,1.52
2019-06-01T11:44:40.710Z,0.98
2019-06-01T11:47:11.647Z,1.22
2019-06-01T11:49:51.865Z,1.07
2019-06-01T11:52:22.707Z,1.98
2019-06-01T11:54:52.897Z,1.17
2019-06-01T11:57:25.811Z,1.07
2019-06-01T11:59:56.771Z,2.85
2019-06-01T12:02:27.299Z,1.92
2019-06-01T12:04:57.937Z,1.52
2019-06-01T12:07:28.490Z,1.40
2019-06-01T12:09:59.000Z,1.00
2019-06-01T12:12:29.520Z,1.12
2019-06-01T12:15:00.262Z,1.00
2019-06-01T12:17:30.889Z,2.60
2019-06-01T12:20:05.171Z,1.60
2019-06-01T12:22:36.499Z,0.90
2019-06-01T12:25:08.408Z,1.30
2019-06-01T12:27:39.570Z,3.33
2019-06-01T12:30:10.568Z,1.37
2019-06-01T12:32:41.943Z,3.35
2019-06-01T12:35:14.287Z,1.65
2019-06-01T12:37:59.644Z,1.52
2019-06-01T12:40:18.347Z,2.42
2019-06-01T12:42:49.216Z,1.00
2019-06-01T12:45:23.106Z,3.83
2019-06-01T12:47:55.346Z,0.90
2019-06-01T12:50:25.311Z,0.85
2019-06-01T12:52:55.796Z,1.75
2019-06-01T12:55:26.148Z,1.00
2019-06-01T12:57:56.620Z,1.22
2019-06-01T13:00:26.942Z,1.00
2019-06-01T13:03:07.138Z,1.00
2019-06-01T13:05:30.114Z,1.52
2019-06-01T13:08:02.979Z,0.70
2019-06-01T13:10:33.149Z,1.10
2019-06-01T13:13:05.643Z,1.00
2019-06-01T13:15:36.777Z,1.32
2019-06-01T13:18:08.470Z,2.67
2019-06-01T13:20:38.962Z,2.45
2019-06-01T13:23:09.588Z,2.08
2019-06-01T13:25:39.754Z,1.30
2019-06-01T13:28:10.350Z,0.95
2019-06-01T13:30:42.353Z,1.47
2019-06-01T13:33:12.718Z,1.10
2019-06-01T13:35:42.924Z,1.67
2019-06-01T13:38:13.173Z,1.32
2019-06-01T13:40:43.443Z,0.85
2019-06-01T13:43:13.872Z,2.25
2019-06-01T13:45:45.129Z,1.25
2019-06-01T13:48:15.680Z,1.22
2019-06-01T13:50:45.914Z,1.62
2019-06-01T13:53:18.168Z,1.67
2019-06-01T13:55:48.435Z,1.00
2019-06-01T13:58:19.902Z,2.70
2019-06-01T14:00:51.583Z,0.80
2019-06-01T14:03:22.513Z,0.88
2019-06-01T14:05:53.454Z,1.00
2019-06-01T14:08:28.967Z,1.72
2019-06-01T14:10:56.060Z,1.27
2019-06-01T14:13:26.866Z,1.92
2019-06-01T14:16:01.770Z,1.60
2019-06-01T14:18:33.884Z,2.85
2019-06-01T14:21:04.993Z,2.00
2019-06-01T14:23:35.578Z,1.07
2019-06-01T14:26:05.890Z,2.27
2019-06-01T14:28:36.631Z,1.32
2019-06-01T14:31:06.984Z,2.42
2019-06-01T14:33:37.508Z,2.42
2019-06-01T14:36:10.170Z,0.93
2019-06-01T14:38:47.042Z,1.15
2019-06-01T14:41:16.721Z,1.52
2019-06-01T14:43:47.089Z,0.90
2019-06-01T14:46:17.728Z,1.20
2019-06-01T14:48:49.354Z,2.20
2019-06-01T14:51:19.881Z,1.45
2019-06-01T14:53:52.075Z,1.02
2019-06-01T14:56:22.867Z,3.27
2019-06-01T14:58:53.945Z,2.52
2019-06-01T15:01:32.572Z,1.80
2019-06-01T15:03:58.403Z,1.05
2019-06-01T15:06:29.100Z,1.35
2019-06-01T15:09:15.258Z,0.78
2019-06-01T15:11:33.020Z,2.08
2019-06-01T15:14:03.566Z,1.10
2019-06-01T15:16:33.959Z,0.80
2019-06-01T15:19:05.130Z,2.45
2019-06-01T15:21:35.587Z,1.12
2019-06-01T15:24:06.542Z,0.90
2019-06-01T15:26:38.417Z,1.98
2019-06-01T15:29:08.958Z,0.82
2019-06-01T15:31:39.235Z,1.20
2019-06-01T15:34:09.787Z,1.80
2019-06-01T15:36:40.469Z,1.45
2019-06-01T15:39:24.163Z,1.52
2019-06-01T15:41:43.453Z,1.92
2019-06-01T15:44:14.075Z,1.50
2019-06-01T15:46:48.105Z,0.90
2019-06-01T15:49:18.343Z,0.98
2019-06-01T15:51:48.610Z,1.32
2019-06-01T15:54:19.287Z,1.32
2019-06-01T15:56:49.643Z,1.87
2019-06-01T15:59:20.553Z,1.00
2019-06-01T16:01:52.968Z,1.00
2019-06-01T16:04:23.735Z,1.45
2019-06-01T16:06:59.166Z,1.25
2019-06-01T16:09:42.057Z,1.25
2019-06-01T16:12:01.805Z,2.70
2019-06-01T16:14:32.535Z,1.00
2019-06-01T16:17:04.746Z,1.50
2019-06-01T16:19:35.691Z,1.90
2019-06-01T16:22:05.999Z,0.70
2019-06-01T16:24:36.316Z,3.27
2019-06-01T16:27:07.055Z,2.08
2019-06-01T16:29:37.224Z,0.90
2019-06-01T16:32:07.842Z,0.70
2019-06-01T16:34:37.991Z,0.70
2019-06-01T16:37:08.619Z,1.62
2019-06-01T16:39:39.013Z,1.02
2019-06-01T16:42:10.370Z,4.28
2019-06-01T16:44:40.487Z,1.85
2019-06-01T16:47:11.727Z,1.07
2019-06-01T16:49:42.256Z,1.60
2019-06-01T16:52:12.685Z,1.75
2019-06-01T16:54:43.220Z,1.90
2019-06-01T16:57:14.425Z,1.80
2019-06-01T16:59:44.638Z,1.77
2019-06-01T17:02:15.072Z,1.10
2019-06-01T17:04:45.737Z,0.78
2019-06-01T17:07:15.837Z,1.50
2019-06-01T17:09:46.098Z,1.47
2019-06-01T17:12:16.690Z,0.90
2019-06-01T17:14:47.495Z,1.05
2019-06-01T17:17:17.986Z,1.10
2019-06-01T17:19:48.238Z,2.35
2019-06-01T17:22:18.726Z,1.55
2019-06-01T17:24:48.991Z,1.10
2019-06-01T17:27:19.756Z,1.25
2019-06-01T17:29:53.705Z,3.75
2019-06-01T17:32:24.890Z,1.67
2019-06-01T17:34:55.279Z,1.98
2019-06-01T17:37:25.527Z,3.87
2019-06-01T17:39:57.165Z,2.35
2019-06-01T17:42:27.748Z,1.77
2019-06-01T17:44:58.410Z,2.42
2019-06-01T17:47:29.010Z,1.87
2019-06-01T17:49:59.182Z,2.08
2019-06-01T17:52:29.405Z,2.47
2019-06-01T17:55:00.740Z,1.12
2019-06-01T17:57:31.062Z,2.20
2019-06-01T18:00:03.393Z,2.67
2019-06-01T18:02:35.599Z,1.47
2019-06-01T18:05:08.274Z,2.20
2019-06-01T18:07:39.246Z,1.92
2019-06-01T18:10:10.206Z,1.47
2019-06-01T18:12:40.707Z,1.92
2019-06-01T18:15:12.762Z,3.10
2019-06-01T18:17:43.337Z,1.40
2019-06-01T18:20:14.717Z,1.77
2019-06-01T18:22:45.018Z,1.90
2019-06-01T18:25:23.464Z,1.30
2019-06-01T18:27:53.810Z,2.65
2019-06-01T18:30:26.079Z,1.85
2019-06-01T18:32:57.360Z,1.55
2019-06-01T18:35:29.094Z,1.47
2019-06-01T18:37:59.715Z,2.37
2019-06-01T18:40:30.265Z,2.02
2019-06-01T18:43:05.796Z,1.12
2019-06-01T18:45:37.185Z,2.20
2019-06-01T18:48:08.584Z,1.52
2019-06-01T18:50:40.701Z,2.83
2019-06-01T18:53:12.127Z,1.82
2019-06-01T18:55:42.509Z,2.30
2019-06-01T18:58:12.841Z,6.78
2019-06-01T19:00:43.858Z,3.62
2019-06-01T19:03:15.519Z,2.80
2019-06-01T19:05:45.936Z,3.15
2019-06-01T19:08:16.536Z,5.05
2019-06-01T19:10:47.986Z,3.92
2019-06-01T19:13:19.064Z,3.37
2019-06-01T19:15:49.283Z,2.58
2019-06-01T19:18:19.966Z,4.67
2019-06-01T19:20:50.471Z,2.60
2019-06-01T19:23:22.639Z,5.40
2019-06-01T19:25:54.393Z,3.80
2019-06-01T19:28:25.005Z,2.62
2019-06-01T19:30:55.282Z,2.35
2019-06-01T19:33:25.449Z,3.00
2019-06-01T19:35:57.103Z,2.85
2019-06-01T19:38:29.809Z,6.55
2019-06-01T19:41:00.060Z,5.65
2019-06-01T19:43:30.444Z,4.28
2019-06-01T19:46:01.414Z,3.33
2019-06-01T19:48:31.623Z,2.58
2019-06-01T19:51:02.607Z,3.40
2019-06-01T19:53:32.902Z,4.37
2019-06-01T19:56:06.507Z,5.17
2019-06-01T19:58:37.306Z,5.90
2019-06-01T20:01:08.181Z,5.28
2019-06-01T20:03:38.934Z,3.83
2019-06-01T20:06:10.651Z,4.55
2019-06-01T20:08:41.120Z,3.77
2019-06-01T20:11:13.142Z,6.62
2019-06-01T20:13:44.469Z,5.90
2019-06-01T20:16:14.756Z,3.85
2019-06-01T20:18:47.286Z,5.05
2019-06-01T20:21:18.836Z,4.62
2019-06-01T20:23:49.974Z,3.33
2019-06-01T20:26:39.350Z,5.92
2019-06-01T20:28:56.327Z,5.50
2019-06-01T20:31:27.145Z,6.58
2019-06-01T20:33:57.417Z,4.00
2019-06-01T20:36:27.946Z,5.35
2019-06-01T20:39:03.070Z,5.78
2019-06-01T20:41:30.962Z,5.28
2019-06-01T20:44:01.984Z,5.65
2019-06-01T20:46:32.929Z,4.80
2019-06-01T20:49:04.107Z,5.60
2019-06-01T20:51:34.307Z,5.62
2019-06-01T20:54:04.670Z,5.10
2019-06-01T20:56:35.236Z,5.60
2019-06-01T20:59:05.946Z,5.35
2019-06-01T21:01:38.861Z,5.47
2019-06-01T21:04:10.727Z,5.05
2019-06-01T21:06:41.555Z,8.15
2019-06-01T21:09:12.139Z,6.47
2019-06-01T21:11:49.176Z,4.58
2019-06-01T21:14:19.359Z,4.90
2019-06-01T21:16:49.909Z,6.50
2019-06-01T21:19:20.507Z,5.17
2019-06-01T21:21:50.799Z,6.53
2019-06-01T21:24:21.384Z,6.17
2019-06-01T21:26:53.325Z,6.62
2019-06-01T21:29:23.607Z,6.67
2019-06-01T21:31:54.316Z,8.80
2019-06-01T21:34:25.442Z,10.55
2019-06-01T21:36:56.739Z,6.65
2019-06-01T21:39:27.434Z,6.50
2019-06-01T21:41:57.961Z,8.00
2019-06-01T21:44:28.140Z,7.28
2019-06-01T21:46:58.403Z,5.50
2019-06-01T21:49:28.819Z,6.10
2019-06-01T21:51:59.067Z,7.20
2019-06-01T21:54:30.411Z,4.85
2019-06-01T21:57:00.804Z,5.80
2019-06-01T21:59:31.303Z,3.87
2019-06-01T22:02:01.884Z,6.53
2019-06-01T22:04:33.968Z,4.47
2019-06-01T22:07:04.542Z,4.53
2019-06-01T22:09:34.880Z,3.87
2019-06-01T22:12:05.409Z,4.70
2019-06-01T22:14:35.838Z,4.58
2019-06-01T22:17:06.338Z,4.08
2019-06-01T22:19:37.304Z,5.55
2019-06-01T22:22:10.066Z,4.40
2019-06-01T22:24:40.347Z,4.08
2019-06-01T22:27:10.964Z,4.15
2019-06-01T22:29:41.258Z,3.98
2019-06-01T22:32:11.564Z,4.15
2019-06-01T22:34:44.652Z,4.83
2019-06-01T22:37:14.901Z,5.17
2019-06-01T22:39:45.017Z,4.08
2019-06-01T22:42:15.336Z,5.03
2019-06-01T22:44:45.924Z,4.72
2019-06-01T22:47:16.502Z,5.45
2019-06-01T22:49:46.860Z,5.37
2019-06-01T22:52:17.144Z,4.97
2019-06-01T22:54:48.340Z,4.95
2019-06-01T22:57:18.612Z,3.70
2019-06-01T22:59:48.735Z,3.98
2019-06-01T23:02:21.467Z,4.42
2019-06-01T23:04:56.126Z,5.10
2019-06-01T23:07:27.257Z,4.30
2019-06-01T23:09:57.608Z,4.30
2019-06-01T23:12:27.876Z,5.28
2019-06-01T23:14:58.050Z,4.30
2019-06-01T23:17:29.884Z,4.60
2019-06-01T23:20:01.730Z,5.33
2019-06-01T23:22:32.504Z,5.00
2019-06-01T23:25:03.335Z,4.95
2019-06-01T23:27:34.035Z,4.70
2019-06-01T23:30:05.911Z,6.60
2019-06-01T23:32:36.130Z,4.47
2019-06-01T23:35:08.184Z,4.47
2019-06-01T23:37:38.444Z,4.30
2019-06-01T23:40:09.064Z,5.08
2019-06-01T23:42:39.645Z,5.47
2019-06-01T23:45:16.995Z,4.10
2019-06-01T23:47:48.006Z,4.67
2019-06-01T23:50:19.525Z,6.67
2019-06-01T23:52:49.880Z,5.97
2019-06-01T23:55:21.023Z,4.65
2019-06-01T23:57:51.992Z,4.35
